sensor_id;sensor_type;location;lat;lon;timestamp;temperature;humidity
49413;DHT22;35493;50.276;9.372;2023-11-19T00:01:17;6.60;91.50
49413;DHT22;35493;50.276;9.372;2023-11-19T00:03:50;6.60;91.50
49413;DHT22;35493;50.276;9.372;2023-11-19T00:06:24;6.70;91.40
49413;DHT22;35493;50.276;9.372;2023-11-19T00:09:00;6.60;91.50
49413;DHT22;35493;50.276;9.372;2023-11-19T00:11:34;6.60;91.50
49413;DHT22;35493;50.276;9.372;2023-11-19T00:14:01;6.60;91.60
49413;DHT22;35493;50.276;9.372;2023-11-19T00:16:34;6.60;91.60
49413;DHT22;35493;50.276;9.372;2023-11-19T00:19:07;6.50;91.70
49413;DHT22;35493;50.276;9.372;2023-11-19T00:21:40;6.50;92.00
49413;DHT22;35493;50.276;9.372;2023-11-19T00:24:15;6.60;92.00
49413;DHT22;35493;50.276;9.372;2023-11-19T00:26:49;6.60;91.90
49413;DHT22;35493;50.276;9.372;2023-11-19T00:29:22;6.70;91.80
49413;DHT22;35493;50.276;9.372;2023-11-19T00:31:56;6.60;91.70
49413;DHT22;35493;50.276;9.372;2023-11-19T00:34:29;6.70;91.70
49413;DHT22;35493;50.276;9.372;2023-11-19T00:37:02;6.70;91.70
49413;DHT22;35493;50.276;9.372;2023-11-19T00:39:37;6.70;91.70
49413;DHT22;35493;50.276;9.372;2023-11-19T00:42:10;6.70;91.80
49413;DHT22;35493;50.276;9.372;2023-11-19T00:44:42;6.70;91.70
49413;DHT22;35493;50.276;9.372;2023-11-19T00:47:16;6.70;91.80
49413;DHT22;35493;50.276;9.372;2023-11-19T00:49:50;6.70;91.70
49413;DHT22;35493;50.276;9.372;2023-11-19T00:52:22;6.70;91.70
49413;DHT22;35493;50.276;9.372;2023-11-19T00:54:58;6.70;91.80
49413;DHT22;35493;50.276;9.372;2023-11-19T00:57:25;6.70;91.70
49413;DHT22;35493;50.276;9.372;2023-11-19T00:59:59;6.70;91.70
49413;DHT22;35493;50.276;9.372;2023-11-19T01:02:32;6.70;91.70
49413;DHT22;35493;50.276;9.372;2023-11-19T01:05:07;6.70;91.80
49413;DHT22;35493;50.276;9.372;2023-11-19T01:07:41;6.70;91.80
49413;DHT22;35493;50.276;9.372;2023-11-19T01:10:16;6.70;91.80
49413;DHT22;35493;50.276;9.372;2023-11-19T01:12:51;6.80;91.70
49413;DHT22;35493;50.276;9.372;2023-11-19T01:15:25;6.80;91.70
49413;DHT22;35493;50.276;9.372;2023-11-19T01:17:59;6.80;91.70
49413;DHT22;35493;50.276;9.372;2023-11-19T01:20:32;6.80;91.70
49413;DHT22;35493;50.276;9.372;2023-11-19T01:23:06;6.90;91.70
49413;DHT22;35493;50.276;9.372;2023-11-19T01:25:41;6.80;91.70
49413;DHT22;35493;50.276;9.372;2023-11-19T01:28:15;6.80;91.70
49413;DHT22;35493;50.276;9.372;2023-11-19T01:30:50;6.80;91.80
49413;DHT22;35493;50.276;9.372;2023-11-19T01:33:17;6.80;91.80
49413;DHT22;35493;50.276;9.372;2023-11-19T01:35:50;6.80;91.80
49413;DHT22;35493;50.276;9.372;2023-11-19T01:38:23;6.90;91.70
49413;DHT22;35493;50.276;9.372;2023-11-19T01:40:57;6.90;91.60
49413;DHT22;35493;50.276;9.372;2023-11-19T01:43:31;6.90;91.80
49413;DHT22;35493;50.276;9.372;2023-11-19T01:46:04;6.90;91.80
49413;DHT22;35493;50.276;9.372;2023-11-19T01:48:38;6.90;91.70
49413;DHT22;35493;50.276;9.372;2023-11-19T01:51:13;6.90;91.70
49413;DHT22;35493;50.276;9.372;2023-11-19T01:53:48;6.90;91.70
49413;DHT22;35493;50.276;9.372;2023-11-19T01:56:26;6.90;91.80
49413;DHT22;35493;50.276;9.372;2023-11-19T01:59:00;6.90;91.70
49413;DHT22;35493;50.276;9.372;2023-11-19T02:01:33;6.90;91.80
49413;DHT22;35493;50.276;9.372;2023-11-19T02:04:11;6.90;91.70
49413;DHT22;35493;50.276;9.372;2023-11-19T02:06:44;6.90;91.70
49413;DHT22;35493;50.276;9.372;2023-11-19T02:09:18;6.90;91.70
49413;DHT22;35493;50.276;9.372;2023-11-19T02:11:52;7.00;91.80
49413;DHT22;35493;50.276;9.372;2023-11-19T02:14:26;7.00;91.70
49413;DHT22;35493;50.276;9.372;2023-11-19T02:17:01;6.90;91.70
49413;DHT22;35493;50.276;9.372;2023-11-19T02:19:34;6.90;91.80
49413;DHT22;35493;50.276;9.372;2023-11-19T02:22:10;7.00;91.90
49413;DHT22;35493;50.276;9.372;2023-11-19T02:24:43;7.00;91.80
49413;DHT22;35493;50.276;9.372;2023-11-19T02:27:23;7.00;91.80
49413;DHT22;35493;50.276;9.372;2023-11-19T02:30:02;7.00;91.80
49413;DHT22;35493;50.276;9.372;2023-11-19T02:32:40;7.00;91.80
49413;DHT22;35493;50.276;9.372;2023-11-19T02:35:14;7.00;91.70
49413;DHT22;35493;50.276;9.372;2023-11-19T02:37:47;7.00;91.90
49413;DHT22;35493;50.276;9.372;2023-11-19T02:40:20;7.00;91.90
49413;DHT22;35493;50.276;9.372;2023-11-19T02:42:55;7.00;91.90
49413;DHT22;35493;50.276;9.372;2023-11-19T02:45:29;7.00;91.90
49413;DHT22;35493;50.276;9.372;2023-11-19T02:48:03;7.00;91.80
49413;DHT22;35493;50.276;9.372;2023-11-19T02:50:39;7.10;92.00
49413;DHT22;35493;50.276;9.372;2023-11-19T02:53:13;7.10;92.00
49413;DHT22;35493;50.276;9.372;2023-11-19T02:55:48;7.10;92.00
49413;DHT22;35493;50.276;9.372;2023-11-19T02:58:22;7.10;92.00
49413;DHT22;35493;50.276;9.372;2023-11-19T03:01:01;7.20;92.00
49413;DHT22;35493;50.276;9.372;2023-11-19T03:03:44;7.20;92.00
49413;DHT22;35493;50.276;9.372;2023-11-19T03:06:21;7.30;92.20
49413;DHT22;35493;50.276;9.372;2023-11-19T03:08:55;7.30;92.20
49413;DHT22;35493;50.276;9.372;2023-11-19T03:11:28;7.40;92.20
49413;DHT22;35493;50.276;9.372;2023-11-19T03:14:01;7.40;92.20
49413;DHT22;35493;50.276;9.372;2023-11-19T03:16:36;7.40;92.20
49413;DHT22;35493;50.276;9.372;2023-11-19T03:19:10;7.40;92.30
49413;DHT22;35493;50.276;9.372;2023-11-19T03:21:45;7.60;92.50
49413;DHT22;35493;50.276;9.372;2023-11-19T03:24:20;7.60;92.80
49413;DHT22;35493;50.276;9.372;2023-11-19T03:26:53;7.60;92.70
49413;DHT22;35493;50.276;9.372;2023-11-19T03:29:26;7.60;92.50
49413;DHT22;35493;50.276;9.372;2023-11-19T03:32:02;7.60;92.60
49413;DHT22;35493;50.276;9.372;2023-11-19T03:34:36;7.70;92.80
49413;DHT22;35493;50.276;9.372;2023-11-19T03:37:10;7.70;92.90
49413;DHT22;35493;50.276;9.372;2023-11-19T03:39:43;7.70;92.80
49413;DHT22;35493;50.276;9.372;2023-11-19T03:42:16;7.70;93.00
49413;DHT22;35493;50.276;9.372;2023-11-19T03:44:49;7.70;93.10
49413;DHT22;35493;50.276;9.372;2023-11-19T03:47:23;7.70;93.00
49413;DHT22;35493;50.276;9.372;2023-11-19T03:49:57;7.80;93.10
49413;DHT22;35493;50.276;9.372;2023-11-19T03:52:30;7.80;93.40
49413;DHT22;35493;50.276;9.372;2023-11-19T03:54:56;7.90;93.60
49413;DHT22;35493;50.276;9.372;2023-11-19T03:57:30;8.00;93.70
49413;DHT22;35493;50.276;9.372;2023-11-19T04:00:06;7.90;93.50
49413;DHT22;35493;50.276;9.372;2023-11-19T04:02:46;7.90;93.60
49413;DHT22;35493;50.276;9.372;2023-11-19T04:05:20;8.00;93.70
49413;DHT22;35493;50.276;9.372;2023-11-19T04:07:53;8.10;93.90
49413;DHT22;35493;50.276;9.372;2023-11-19T04:10:26;8.10;93.90
49413;DHT22;35493;50.276;9.372;2023-11-19T04:12:59;8.20;94.00
49413;DHT22;35493;50.276;9.372;2023-11-19T04:15:33;8.20;94.00
49413;DHT22;35493;50.276;9.372;2023-11-19T04:18:07;8.20;94.00
49413;DHT22;35493;50.276;9.372;2023-11-19T04:20:41;8.20;94.10
49413;DHT22;35493;50.276;9.372;2023-11-19T04:23:14;8.30;94.10
49413;DHT22;35493;50.276;9.372;2023-11-19T04:25:47;8.40;94.20
49413;DHT22;35493;50.276;9.372;2023-11-19T04:28:20;8.40;94.20
49413;DHT22;35493;50.276;9.372;2023-11-19T04:30:53;8.30;94.20
49413;DHT22;35493;50.276;9.372;2023-11-19T04:33:27;8.40;94.30
49413;DHT22;35493;50.276;9.372;2023-11-19T04:36:03;8.40;94.30
49413;DHT22;35493;50.276;9.372;2023-11-19T04:38:36;8.40;94.30
49413;DHT22;35493;50.276;9.372;2023-11-19T04:41:10;8.40;94.30
49413;DHT22;35493;50.276;9.372;2023-11-19T04:43:43;8.50;94.40
49413;DHT22;35493;50.276;9.372;2023-11-19T04:46:16;8.60;94.50
49413;DHT22;35493;50.276;9.372;2023-11-19T04:48:50;8.60;94.50
49413;DHT22;35493;50.276;9.372;2023-11-19T04:51:24;8.60;94.40
49413;DHT22;35493;50.276;9.372;2023-11-19T04:53:57;8.60;94.50
49413;DHT22;35493;50.276;9.372;2023-11-19T04:56:30;8.60;94.50
49413;DHT22;35493;50.276;9.372;2023-11-19T04:59:03;8.60;94.50
49413;DHT22;35493;50.276;9.372;2023-11-19T05:01:37;8.70;94.60
49413;DHT22;35493;50.276;9.372;2023-11-19T05:04:11;8.70;94.60
49413;DHT22;35493;50.276;9.372;2023-11-19T05:06:44;8.70;94.60
49413;DHT22;35493;50.276;9.372;2023-11-19T05:09:17;8.70;94.60
49413;DHT22;35493;50.276;9.372;2023-11-19T05:11:50;8.70;94.60
49413;DHT22;35493;50.276;9.372;2023-11-19T05:14:23;8.70;94.70
49413;DHT22;35493;50.276;9.372;2023-11-19T05:16:58;8.80;94.70
49413;DHT22;35493;50.276;9.372;2023-11-19T05:19:33;8.80;94.70
49413;DHT22;35493;50.276;9.372;2023-11-19T05:22:07;8.80;94.70
49413;DHT22;35493;50.276;9.372;2023-11-19T05:24:40;8.80;94.70
49413;DHT22;35493;50.276;9.372;2023-11-19T05:27:14;8.80;94.70
49413;DHT22;35493;50.276;9.372;2023-11-19T05:29:47;8.80;94.70
49413;DHT22;35493;50.276;9.372;2023-11-19T05:32:20;8.90;94.80
49413;DHT22;35493;50.276;9.372;2023-11-19T05:34:54;8.90;94.80
49413;DHT22;35493;50.276;9.372;2023-11-19T05:37:28;8.90;94.80
49413;DHT22;35493;50.276;9.372;2023-11-19T05:40:01;9.00;94.80
49413;DHT22;35493;50.276;9.372;2023-11-19T05:42:37;9.00;94.80
49413;DHT22;35493;50.276;9.372;2023-11-19T05:45:11;9.00;94.90
49413;DHT22;35493;50.276;9.372;2023-11-19T05:47:44;9.00;94.80
49413;DHT22;35493;50.276;9.372;2023-11-19T05:50:25;9.00;94.90
49413;DHT22;35493;50.276;9.372;2023-11-19T05:52:58;9.00;94.90
49413;DHT22;35493;50.276;9.372;2023-11-19T05:55:31;9.10;94.90
49413;DHT22;35493;50.276;9.372;2023-11-19T05:58:04;9.10;95.00
49413;DHT22;35493;50.276;9.372;2023-11-19T06:00:39;9.10;95.00
49413;DHT22;35493;50.276;9.372;2023-11-19T06:03:12;9.10;95.00
49413;DHT22;35493;50.276;9.372;2023-11-19T06:05:40;9.10;95.00
49413;DHT22;35493;50.276;9.372;2023-11-19T06:08:13;9.10;95.00
49413;DHT22;35493;50.276;9.372;2023-11-19T06:10:46;9.20;95.00
49413;DHT22;35493;50.276;9.372;2023-11-19T06:13:22;9.20;95.00
49413;DHT22;35493;50.276;9.372;2023-11-19T06:15:56;9.20;95.10
49413;DHT22;35493;50.276;9.372;2023-11-19T06:18:29;9.20;95.00
49413;DHT22;35493;50.276;9.372;2023-11-19T06:21:04;9.20;95.00
49413;DHT22;35493;50.276;9.372;2023-11-19T06:23:41;9.20;95.10
49413;DHT22;35493;50.276;9.372;2023-11-19T06:26:14;9.20;95.10
49413;DHT22;35493;50.276;9.372;2023-11-19T06:28:47;9.20;95.10
49413;DHT22;35493;50.276;9.372;2023-11-19T06:31:20;9.30;95.10
49413;DHT22;35493;50.276;9.372;2023-11-19T06:33:56;9.30;95.20
49413;DHT22;35493;50.276;9.372;2023-11-19T06:36:30;9.40;95.20
49413;DHT22;35493;50.276;9.372;2023-11-19T06:39:04;9.40;95.10
49413;DHT22;35493;50.276;9.372;2023-11-19T06:41:38;9.40;95.20
49413;DHT22;35493;50.276;9.372;2023-11-19T06:44:11;9.40;95.20
49413;DHT22;35493;50.276;9.372;2023-11-19T06:46:44;9.40;95.20
49413;DHT22;35493;50.276;9.372;2023-11-19T06:49:18;9.40;95.20
49413;DHT22;35493;50.276;9.372;2023-11-19T06:51:52;9.40;95.20
49413;DHT22;35493;50.276;9.372;2023-11-19T06:54:26;9.40;95.20
49413;DHT22;35493;50.276;9.372;2023-11-19T06:56:59;9.50;95.20
49413;DHT22;35493;50.276;9.372;2023-11-19T06:59:32;9.50;95.20
49413;DHT22;35493;50.276;9.372;2023-11-19T07:02:05;9.50;95.20
49413;DHT22;35493;50.276;9.372;2023-11-19T07:04:38;9.50;95.20
49413;DHT22;35493;50.276;9.372;2023-11-19T07:07:12;9.50;95.20
49413;DHT22;35493;50.276;9.372;2023-11-19T07:09:48;9.50;95.20
49413;DHT22;35493;50.276;9.372;2023-11-19T07:12:22;9.60;95.20
49413;DHT22;35493;50.276;9.372;2023-11-19T07:14:55;9.60;95.20
49413;DHT22;35493;50.276;9.372;2023-11-19T07:17:29;9.60;95.20
49413;DHT22;35493;50.276;9.372;2023-11-19T07:20:08;9.60;95.20
49413;DHT22;35493;50.276;9.372;2023-11-19T07:22:48;9.70;95.30
49413;DHT22;35493;50.276;9.372;2023-11-19T07:25:22;9.60;95.20
49413;DHT22;35493;50.276;9.372;2023-11-19T07:27:55;9.60;95.20
49413;DHT22;35493;50.276;9.372;2023-11-19T07:30:28;9.70;95.20
49413;DHT22;35493;50.276;9.372;2023-11-19T07:32:55;9.70;95.30
49413;DHT22;35493;50.276;9.372;2023-11-19T07:35:30;9.70;95.30
49413;DHT22;35493;50.276;9.372;2023-11-19T07:38:04;9.70;95.30
49413;DHT22;35493;50.276;9.372;2023-11-19T07:40:38;9.70;95.30
49413;DHT22;35493;50.276;9.372;2023-11-19T07:43:11;9.70;95.30
49413;DHT22;35493;50.276;9.372;2023-11-19T07:45:44;9.80;95.30
49413;DHT22;35493;50.276;9.372;2023-11-19T07:48:18;9.80;95.30
49413;DHT22;35493;50.276;9.372;2023-11-19T07:51:01;9.80;95.30
49413;DHT22;35493;50.276;9.372;2023-11-19T07:53:36;9.80;95.30
49413;DHT22;35493;50.276;9.372;2023-11-19T07:56:10;9.80;95.30
49413;DHT22;35493;50.276;9.372;2023-11-19T07:58:44;9.90;95.30
49413;DHT22;35493;50.276;9.372;2023-11-19T08:01:18;9.90;95.40
49413;DHT22;35493;50.276;9.372;2023-11-19T08:03:51;9.90;95.40
49413;DHT22;35493;50.276;9.372;2023-11-19T08:06:24;9.90;95.30
49413;DHT22;35493;50.276;9.372;2023-11-19T08:08:58;9.90;95.40
49413;DHT22;35493;50.276;9.372;2023-11-19T08:11:32;10.00;95.40
49413;DHT22;35493;50.276;9.372;2023-11-19T08:14:05;10.00;95.40
49413;DHT22;35493;50.276;9.372;2023-11-19T08:16:38;10.00;95.40
49413;DHT22;35493;50.276;9.372;2023-11-19T08:19:19;10.00;95.40
49413;DHT22;35493;50.276;9.372;2023-11-19T08:21:45;10.10;95.40
49413;DHT22;35493;50.276;9.372;2023-11-19T08:24:20;10.00;95.40
49413;DHT22;35493;50.276;9.372;2023-11-19T08:26:54;10.10;95.40
49413;DHT22;35493;50.276;9.372;2023-11-19T08:29:27;10.10;95.40
49413;DHT22;35493;50.276;9.372;2023-11-19T08:32:01;10.10;95.40
49413;DHT22;35493;50.276;9.372;2023-11-19T08:34:35;10.20;95.40
49413;DHT22;35493;50.276;9.372;2023-11-19T08:37:22;10.20;95.40
49413;DHT22;35493;50.276;9.372;2023-11-19T08:39:57;10.20;95.30
49413;DHT22;35493;50.276;9.372;2023-11-19T08:42:39;10.30;95.30
49413;DHT22;35493;50.276;9.372;2023-11-19T08:45:13;10.30;95.40
49413;DHT22;35493;50.276;9.372;2023-11-19T08:47:46;10.40;95.30
49413;DHT22;35493;50.276;9.372;2023-11-19T08:50:19;10.30;95.30
49413;DHT22;35493;50.276;9.372;2023-11-19T08:52:55;10.30;95.30
49413;DHT22;35493;50.276;9.372;2023-11-19T08:55:29;10.40;95.30
49413;DHT22;35493;50.276;9.372;2023-11-19T08:58:03;10.50;95.30
49413;DHT22;35493;50.276;9.372;2023-11-19T09:00:36;10.50;95.20
49413;DHT22;35493;50.276;9.372;2023-11-19T09:03:09;10.60;95.30
49413;DHT22;35493;50.276;9.372;2023-11-19T09:05:42;10.60;95.20
49413;DHT22;35493;50.276;9.372;2023-11-19T09:08:15;10.70;95.20
49413;DHT22;35493;50.276;9.372;2023-11-19T09:10:49;10.70;95.20
49413;DHT22;35493;50.276;9.372;2023-11-19T09:13:30;10.70;95.10
49413;DHT22;35493;50.276;9.372;2023-11-19T09:16:04;10.80;95.10
49413;DHT22;35493;50.276;9.372;2023-11-19T09:18:38;10.80;95.00
49413;DHT22;35493;50.276;9.372;2023-11-19T09:21:11;10.80;95.10
49413;DHT22;35493;50.276;9.372;2023-11-19T09:23:38;10.80;95.00
49413;DHT22;35493;50.276;9.372;2023-11-19T09:26:13;10.80;95.00
49413;DHT22;35493;50.276;9.372;2023-11-19T09:28:47;10.90;95.00
49413;DHT22;35493;50.276;9.372;2023-11-19T09:31:20;11.00;94.90
49413;DHT22;35493;50.276;9.372;2023-11-19T09:33:53;11.00;94.90
49413;DHT22;35493;50.276;9.372;2023-11-19T09:36:26;11.10;94.90
49413;DHT22;35493;50.276;9.372;2023-11-19T09:38:59;11.10;94.80
49413;DHT22;35493;50.276;9.372;2023-11-19T09:41:35;11.10;94.80
49413;DHT22;35493;50.276;9.372;2023-11-19T09:44:09;11.00;94.80
49413;DHT22;35493;50.276;9.372;2023-11-19T09:46:37;11.00;94.80
49413;DHT22;35493;50.276;9.372;2023-11-19T09:49:11;11.00;94.70
49413;DHT22;35493;50.276;9.372;2023-11-19T09:51:44;11.10;94.70
49413;DHT22;35493;50.276;9.372;2023-11-19T09:54:17;11.10;94.70
49413;DHT22;35493;50.276;9.372;2023-11-19T09:56:51;11.20;94.70
49413;DHT22;35493;50.276;9.372;2023-11-19T09:59:25;11.20;94.70
49413;DHT22;35493;50.276;9.372;2023-11-19T10:01:59;11.30;94.70
49413;DHT22;35493;50.276;9.372;2023-11-19T10:04:32;11.30;94.60
49413;DHT22;35493;50.276;9.372;2023-11-19T10:07:07;11.40;94.60
49413;DHT22;35493;50.276;9.372;2023-11-19T10:09:40;11.40;94.60
49413;DHT22;35493;50.276;9.372;2023-11-19T10:12:14;11.40;94.50
49413;DHT22;35493;50.276;9.372;2023-11-19T10:14:48;11.50;94.60
49413;DHT22;35493;50.276;9.372;2023-11-19T10:17:26;11.50;94.50
49413;DHT22;35493;50.276;9.372;2023-11-19T10:20:01;11.50;94.50
49413;DHT22;35493;50.276;9.372;2023-11-19T10:22:36;11.60;94.50
49413;DHT22;35493;50.276;9.372;2023-11-19T10:25:21;11.60;94.40
49413;DHT22;35493;50.276;9.372;2023-11-19T10:27:56;11.60;94.30
49413;DHT22;35493;50.276;9.372;2023-11-19T10:30:30;11.70;94.20
49413;DHT22;35493;50.276;9.372;2023-11-19T10:33:05;11.70;94.20
49413;DHT22;35493;50.276;9.372;2023-11-19T10:35:50;11.70;94.10
49413;DHT22;35493;50.276;9.372;2023-11-19T10:38:24;11.70;94.10
49413;DHT22;35493;50.276;9.372;2023-11-19T10:40:58;11.70;94.00
49413;DHT22;35493;50.276;9.372;2023-11-19T10:43:43;11.80;93.80
49413;DHT22;35493;50.276;9.372;2023-11-19T10:46:17;11.80;93.70
49413;DHT22;35493;50.276;9.372;2023-11-19T10:48:55;11.90;93.20
49413;DHT22;35493;50.276;9.372;2023-11-19T10:51:28;11.90;93.30
49413;DHT22;35493;50.276;9.372;2023-11-19T10:54:02;11.90;93.10
49413;DHT22;35493;50.276;9.372;2023-11-19T10:56:37;11.90;93.00
49413;DHT22;35493;50.276;9.372;2023-11-19T10:59:12;11.90;92.90
49413;DHT22;35493;50.276;9.372;2023-11-19T11:01:48;11.90;92.80
49413;DHT22;35493;50.276;9.372;2023-11-19T11:04:23;11.90;92.60
49413;DHT22;35493;50.276;9.372;2023-11-19T11:06:56;11.90;92.60
49413;DHT22;35493;50.276;9.372;2023-11-19T11:09:31;11.90;92.50
49413;DHT22;35493;50.276;9.372;2023-11-19T11:12:04;11.90;92.50
49413;DHT22;35493;50.276;9.372;2023-11-19T11:14:40;11.90;92.40
49413;DHT22;35493;50.276;9.372;2023-11-19T11:17:22;11.90;92.50
49413;DHT22;35493;50.276;9.372;2023-11-19T11:19:57;11.90;92.10
49413;DHT22;35493;50.276;9.372;2023-11-19T11:22:30;11.90;92.20
49413;DHT22;35493;50.276;9.372;2023-11-19T11:25:19;11.90;91.80
49413;DHT22;35493;50.276;9.372;2023-11-19T11:28:04;11.90;91.70
49413;DHT22;35493;50.276;9.372;2023-11-19T11:30:43;11.90;91.40
49413;DHT22;35493;50.276;9.372;2023-11-19T11:33:28;11.90;91.30
49413;DHT22;35493;50.276;9.372;2023-11-19T11:36:08;11.90;91.10
49413;DHT22;35493;50.276;9.372;2023-11-19T11:38:47;11.90;91.00
49413;DHT22;35493;50.276;9.372;2023-11-19T11:41:15;11.90;91.00
49413;DHT22;35493;50.276;9.372;2023-11-19T11:43:48;11.90;90.90
49413;DHT22;35493;50.276;9.372;2023-11-19T11:49:15;11.90;91.00
49413;DHT22;35493;50.276;9.372;2023-11-19T11:51:57;11.90;90.90
49413;DHT22;35493;50.276;9.372;2023-11-19T11:54:31;11.90;90.60
49413;DHT22;35493;50.276;9.372;2023-11-19T11:57:06;11.80;90.50
49413;DHT22;35493;50.276;9.372;2023-11-19T11:59:45;11.90;90.50
49413;DHT22;35493;50.276;9.372;2023-11-19T12:02:22;11.90;90.30
49413;DHT22;35493;50.276;9.372;2023-11-19T12:04:59;11.90;90.00
49413;DHT22;35493;50.276;9.372;2023-11-19T12:07:35;11.90;90.10
49413;DHT22;35493;50.276;9.372;2023-11-19T12:10:10;12.00;89.90
49413;DHT22;35493;50.276;9.372;2023-11-19T12:12:44;12.00;90.00
49413;DHT22;35493;50.276;9.372;2023-11-19T12:15:18;12.00;89.80
49413;DHT22;35493;50.276;9.372;2023-11-19T12:17:52;11.90;89.80
49413;DHT22;35493;50.276;9.372;2023-11-19T12:20:26;11.90;89.60
49413;DHT22;35493;50.276;9.372;2023-11-19T12:23:04;11.90;89.20
49413;DHT22;35493;50.276;9.372;2023-11-19T12:25:39;11.90;89.10
49413;DHT22;35493;50.276;9.372;2023-11-19T12:28:12;11.90;89.00
49413;DHT22;35493;50.276;9.372;2023-11-19T12:30:46;11.90;88.80
49413;DHT22;35493;50.276;9.372;2023-11-19T12:33:20;12.00;88.60
49413;DHT22;35493;50.276;9.372;2023-11-19T12:35:54;12.00;88.70
49413;DHT22;35493;50.276;9.372;2023-11-19T12:38:28;11.90;88.30
49413;DHT22;35493;50.276;9.372;2023-11-19T12:41:04;12.00;88.20
49413;DHT22;35493;50.276;9.372;2023-11-19T12:43:38;11.90;87.70
49413;DHT22;35493;50.276;9.372;2023-11-19T12:46:19;11.90;87.40
49413;DHT22;35493;50.276;9.372;2023-11-19T12:48:52;11.90;86.50
49413;DHT22;35493;50.276;9.372;2023-11-19T12:51:31;11.90;87.40
49413;DHT22;35493;50.276;9.372;2023-11-19T12:54:05;11.80;86.80
49413;DHT22;35493;50.276;9.372;2023-11-19T12:56:51;11.80;86.70
49413;DHT22;35493;50.276;9.372;2023-11-19T12:59:25;11.80;86.50
49413;DHT22;35493;50.276;9.372;2023-11-19T13:01:59;11.80;86.20
49413;DHT22;35493;50.276;9.372;2023-11-19T13:04:34;11.80;85.90
49413;DHT22;35493;50.276;9.372;2023-11-19T13:07:08;11.80;86.00
49413;DHT22;35493;50.276;9.372;2023-11-19T13:09:45;11.70;85.80
49413;DHT22;35493;50.276;9.372;2023-11-19T13:12:18;11.70;85.90
49413;DHT22;35493;50.276;9.372;2023-11-19T13:14:51;11.70;86.40
49413;DHT22;35493;50.276;9.372;2023-11-19T13:17:25;11.70;85.60
49413;DHT22;35493;50.276;9.372;2023-11-19T13:19:59;11.80;85.00
49413;DHT22;35493;50.276;9.372;2023-11-19T13:22:33;11.80;84.80
49413;DHT22;35493;50.276;9.372;2023-11-19T13:25:07;11.80;84.90
49413;DHT22;35493;50.276;9.372;2023-11-19T13:27:41;11.80;84.10
49413;DHT22;35493;50.276;9.372;2023-11-19T13:30:14;11.90;83.80
49413;DHT22;35493;50.276;9.372;2023-11-19T13:32:48;11.90;83.70
49413;DHT22;35493;50.276;9.372;2023-11-19T13:35:22;11.90;83.30
49413;DHT22;35493;50.276;9.372;2023-11-19T13:37:56;11.90;83.20
49413;DHT22;35493;50.276;9.372;2023-11-19T13:40:30;11.90;83.10
49413;DHT22;35493;50.276;9.372;2023-11-19T13:43:03;11.90;83.10
49413;DHT22;35493;50.276;9.372;2023-11-19T13:45:36;11.80;82.90
49413;DHT22;35493;50.276;9.372;2023-11-19T13:48:09;11.80;82.70
49413;DHT22;35493;50.276;9.372;2023-11-19T13:50:42;11.70;82.60
49413;DHT22;35493;50.276;9.372;2023-11-19T13:53:16;11.70;82.50
49413;DHT22;35493;50.276;9.372;2023-11-19T13:55:50;11.70;82.90
49413;DHT22;35493;50.276;9.372;2023-11-19T13:58:23;11.60;83.10
49413;DHT22;35493;50.276;9.372;2023-11-19T14:00:56;11.50;83.00
49413;DHT22;35493;50.276;9.372;2023-11-19T14:03:29;11.60;83.20
49413;DHT22;35493;50.276;9.372;2023-11-19T14:06:02;11.50;83.40
49413;DHT22;35493;50.276;9.372;2023-11-19T14:08:37;11.50;83.20
49413;DHT22;35493;50.276;9.372;2023-11-19T14:11:11;11.50;83.60
49413;DHT22;35493;50.276;9.372;2023-11-19T14:13:44;11.50;83.70
49413;DHT22;35493;50.276;9.372;2023-11-19T14:16:18;11.40;83.70
49413;DHT22;35493;50.276;9.372;2023-11-19T14:18:52;11.50;84.10
49413;DHT22;35493;50.276;9.372;2023-11-19T14:21:26;11.40;84.30
49413;DHT22;35493;50.276;9.372;2023-11-19T14:24:01;11.50;84.30
49413;DHT22;35493;50.276;9.372;2023-11-19T14:26:34;11.50;84.40
49413;DHT22;35493;50.276;9.372;2023-11-19T14:29:07;11.50;84.30
49413;DHT22;35493;50.276;9.372;2023-11-19T14:31:40;11.60;84.00
49413;DHT22;35493;50.276;9.372;2023-11-19T14:34:13;11.60;84.10
49413;DHT22;35493;50.276;9.372;2023-11-19T14:36:46;11.60;84.00
49413;DHT22;35493;50.276;9.372;2023-11-19T14:39:23;11.60;83.90
49413;DHT22;35493;50.276;9.372;2023-11-19T14:41:56;11.60;84.10
49413;DHT22;35493;50.276;9.372;2023-11-19T14:44:32;11.60;83.90
49413;DHT22;35493;50.276;9.372;2023-11-19T14:47:05;11.70;84.00
49413;DHT22;35493;50.276;9.372;2023-11-19T14:49:38;11.60;84.20
49413;DHT22;35493;50.276;9.372;2023-11-19T14:52:11;11.60;84.30
49413;DHT22;35493;50.276;9.372;2023-11-19T14:54:53;11.60;84.10
49413;DHT22;35493;50.276;9.372;2023-11-19T14:57:28;11.60;84.10
49413;DHT22;35493;50.276;9.372;2023-11-19T15:00:01;11.60;83.70
49413;DHT22;35493;50.276;9.372;2023-11-19T15:02:44;11.60;83.60
49413;DHT22;35493;50.276;9.372;2023-11-19T15:05:17;11.60;83.40
49413;DHT22;35493;50.276;9.372;2023-11-19T15:07:45;11.70;83.10
49413;DHT22;35493;50.276;9.372;2023-11-19T15:10:21;11.70;83.00
49413;DHT22;35493;50.276;9.372;2023-11-19T15:12:56;11.70;83.10
49413;DHT22;35493;50.276;9.372;2023-11-19T15:15:29;11.70;82.60
49413;DHT22;35493;50.276;9.372;2023-11-19T15:18:02;11.60;82.30
49413;DHT22;35493;50.276;9.372;2023-11-19T15:20:35;11.70;82.20
49413;DHT22;35493;50.276;9.372;2023-11-19T15:23:09;11.60;82.30
49413;DHT22;35493;50.276;9.372;2023-11-19T15:25:43;11.60;82.00
49413;DHT22;35493;50.276;9.372;2023-11-19T15:28:17;11.70;82.00
49413;DHT22;35493;50.276;9.372;2023-11-19T15:30:51;11.70;81.30
49413;DHT22;35493;50.276;9.372;2023-11-19T15:33:25;11.70;81.10
49413;DHT22;35493;50.276;9.372;2023-11-19T15:35:58;11.70;80.70
49413;DHT22;35493;50.276;9.372;2023-11-19T15:38:32;11.60;80.60
49413;DHT22;35493;50.276;9.372;2023-11-19T15:41:07;11.60;80.70
49413;DHT22;35493;50.276;9.372;2023-11-19T15:43:41;11.60;80.70
49413;DHT22;35493;50.276;9.372;2023-11-19T15:46:14;11.60;80.40
49413;DHT22;35493;50.276;9.372;2023-11-19T15:48:48;11.60;80.50
49413;DHT22;35493;50.276;9.372;2023-11-19T15:51:15;11.60;80.20
49413;DHT22;35493;50.276;9.372;2023-11-19T15:53:49;11.50;80.60
49413;DHT22;35493;50.276;9.372;2023-11-19T15:56:23;11.40;80.90
49413;DHT22;35493;50.276;9.372;2023-11-19T15:58:57;11.40;81.10
49413;DHT22;35493;50.276;9.372;2023-11-19T16:01:37;11.40;81.30
49413;DHT22;35493;50.276;9.372;2023-11-19T16:04:10;11.30;81.20
49413;DHT22;35493;50.276;9.372;2023-11-19T16:06:43;11.30;81.30
49413;DHT22;35493;50.276;9.372;2023-11-19T16:09:16;11.20;81.10
49413;DHT22;35493;50.276;9.372;2023-11-19T16:11:52;11.30;81.10
49413;DHT22;35493;50.276;9.372;2023-11-19T16:14:26;11.30;81.30
49413;DHT22;35493;50.276;9.372;2023-11-19T16:16:59;11.30;81.50
49413;DHT22;35493;50.276;9.372;2023-11-19T16:19:32;11.30;81.40
49413;DHT22;35493;50.276;9.372;2023-11-19T16:22:06;11.30;81.30
49413;DHT22;35493;50.276;9.372;2023-11-19T16:24:42;11.30;81.30